Time;durP1;ratioP1;P1;durP2;ratioP2;P2;SDS_P1;SDS_P2;PMS_P1;PMS_P2;Temp;Humidity;BMP_temperature;BMP_pressure;BME280_temperature;BME280_humidity;BME280_pressure;Samples;Min_cycle;Max_cycle;Signal;HPM_P1;HPM_P2
2022/05/09 00:01:55;;;;;;;6.70;4.60;;;13.20;99.90;;;;;;5052924;28;20464;-68
2022/05/09 00:04:20;;;;;;;7.40;4.30;;;13.30;99.90;;;;;;5052051;28;20357;-69
2022/05/09 00:06:47;;;;;;;4.80;4.40;;;13.30;99.90;;;;;;5051687;28;20220;-69
2022/05/09 00:09:14;;;;;;;4.80;4.00;;;13.40;99.90;;;;;;5051605;28;20573;-72
2022/05/09 00:11:40;;;;;;;5.83;4.63;;;13.40;99.90;;;;;;5052088;28;20531;-71
2022/05/09 00:14:06;;;;;;;5.67;4.60;;;13.40;99.90;;;;;;5071979;28;20894;-70
2022/05/09 00:16:34;;;;;;;6.20;4.67;;;13.40;99.90;;;;;;5071970;28;20908;-69
2022/05/09 00:19:03;;;;;;;5.13;4.63;;;13.40;99.90;;;;;;5070357;28;20473;-70
2022/05/09 00:21:31;;;;;;;6.53;4.70;;;13.40;99.90;;;;;;5071459;28;20470;-70
2022/05/09 00:23:57;;;;;;;5.80;4.77;;;13.40;99.90;;;;;;5069844;28;20443;-69
2022/05/09 00:26:22;;;;;;;5.17;4.67;;;13.50;99.90;;;;;;5071014;28;20419;-69
2022/05/09 00:28:48;;;;;;;5.40;4.40;;;13.50;99.90;;;;;;5071501;28;20535;-69
2022/05/09 00:31:13;;;;;;;6.93;5.10;;;13.50;99.90;;;;;;5071298;28;20584;-69
2022/05/09 00:33:39;;;;;;;4.90;4.50;;;13.50;99.90;;;;;;5069549;28;20228;-69
2022/05/09 00:36:06;;;;;;;7.37;4.93;;;13.50;99.90;;;;;;5068225;28;20185;-70
2022/05/09 00:38:32;;;;;;;8.67;5.50;;;13.50;99.90;;;;;;5063482;28;20413;-68
2022/05/09 00:43:41;;;;;;;5.60;5.10;;;13.40;99.90;;;;;;5052098;28;20576;-68
2022/05/09 00:46:08;;;;;;;5.90;4.27;;;13.30;99.90;;;;;;5053071;28;20405;-69
2022/05/09 00:48:34;;;;;;;5.10;4.13;;;13.30;99.90;;;;;;5071137;28;20180;-69
2022/05/09 00:51:01;;;;;;;8.33;4.53;;;13.30;99.90;;;;;;5073310;28;20442;-70
2022/05/09 00:53:30;;;;;;;5.73;4.80;;;13.30;99.90;;;;;;5079246;28;20411;-68
2022/05/09 00:56:00;;;;;;;5.43;4.93;;;13.30;99.90;;;;;;5094286;28;20415;-70
2022/05/09 00:58:50;;;;;;;7.00;4.50;;;13.30;99.90;;;;;;5094873;28;20446;-70
2022/05/09 01:01:16;;;;;;;7.23;5.40;;;13.30;99.90;;;;;;5089560;28;20501;-69
2022/05/09 01:03:48;;;;;;;7.93;4.87;;;13.30;99.90;;;;;;5078425;28;20779;-70
2022/05/09 01:06:14;;;;;;;5.53;4.97;;;13.30;99.90;;;;;;5075375;28;20477;-70
2022/05/09 01:08:40;;;;;;;6.27;5.03;;;13.20;99.90;;;;;;5075805;28;20420;-68
2022/05/09 01:11:09;;;;;;;5.10;4.47;;;13.20;99.90;;;;;;5093940;28;20173;-68
2022/05/09 01:13:41;;;;;;;8.03;4.93;;;13.20;99.90;;;;;;5093735;28;20404;-69
2022/05/09 01:16:08;;;;;;;6.13;4.77;;;13.10;99.90;;;;;;5089586;28;20400;-69
2022/05/09 01:18:35;;;;;;;9.03;5.00;;;13.00;99.90;;;;;;5086634;28;20428;-68
2022/05/09 01:21:07;;;;;;;6.90;4.33;;;13.00;99.90;;;;;;5087270;28;20455;-69
2022/05/09 01:23:34;;;;;;;6.87;4.83;;;13.00;99.90;;;;;;5080277;28;20404;-68
2022/05/09 01:25:59;;;;;;;7.97;4.70;;;12.90;99.90;;;;;;5074469;28;20405;-68
2022/05/09 01:28:25;;;;;;;6.27;5.07;;;12.90;99.90;;;;;;5074254;28;20549;-69
2022/05/09 01:30:56;;;;;;;6.73;4.50;;;13.00;99.90;;;;;;5072158;28;20189;-69
2022/05/09 01:33:35;;;;;;;7.43;4.67;;;13.00;99.90;;;;;;5074012;28;20177;-69
2022/05/09 01:36:15;;;;;;;6.83;4.63;;;12.90;99.90;;;;;;5074217;28;20792;-69
2022/05/09 01:38:44;;;;;;;6.87;4.00;;;12.90;99.90;;;;;;5076200;28;20403;-69
2022/05/09 01:41:10;;;;;;;4.63;4.23;;;12.90;99.90;;;;;;5060991;28;20870;-69
2022/05/09 01:43:42;;;;;;;6.13;4.83;;;12.80;99.90;;;;;;5054321;28;20417;-69
2022/05/09 01:46:20;;;;;;;5.30;4.80;;;12.80;99.90;;;;;;5054052;28;20417;-69
2022/05/09 01:51:32;;;;;;;5.50;4.50;;;12.80;99.90;;;;;;5055192;28;20425;-68
2022/05/09 01:53:58;;;;;;;7.20;5.23;;;12.80;99.90;;;;;;5053997;28;20436;-68
2022/05/09 01:56:26;;;;;;;6.67;4.97;;;12.80;99.90;;;;;;5053835;28;20405;-69
2022/05/09 01:58:52;;;;;;;6.13;4.90;;;12.80;99.90;;;;;;5053445;28;20408;-69
2022/05/09 02:01:20;;;;;;;9.00;5.13;;;12.60;99.90;;;;;;5054565;28;20202;-68
2022/05/09 02:03:46;;;;;;;6.40;4.30;;;12.60;99.90;;;;;;5053361;28;20208;-68
2022/05/09 02:06:12;;;;;;;4.60;4.13;;;12.50;99.90;;;;;;5052872;28;20409;-69
2022/05/09 02:08:38;;;;;;;7.77;5.33;;;12.40;99.90;;;;;;5052218;28;20486;-68
2022/05/09 02:11:04;;;;;;;5.07;4.57;;;12.40;99.90;;;;;;5051919;28;20175;-69
2022/05/09 02:13:30;;;;;;;5.00;4.60;;;12.40;99.90;;;;;;5054296;28;20482;-68
2022/05/09 02:15:55;;;;;;;5.80;4.90;;;12.30;99.90;;;;;;5051940;28;20416;-68
2022/05/09 02:18:21;;;;;;;5.77;4.40;;;12.40;99.90;;;;;;5052243;28;20639;-68
2022/05/09 02:20:46;;;;;;;6.23;5.00;;;12.40;99.90;;;;;;5052869;28;20205;-69
2022/05/09 02:23:13;;;;;;;6.20;5.60;;;12.40;99.90;;;;;;5054300;28;20172;-68
2022/05/09 02:25:40;;;;;;;7.67;4.80;;;12.40;99.90;;;;;;5052824;28;20194;-68
2022/05/09 02:28:09;;;;;;;6.03;4.80;;;12.40;99.90;;;;;;5055695;28;20801;-68
2022/05/09 02:30:35;;;;;;;5.23;4.73;;;12.20;99.90;;;;;;5062760;28;20417;-69
2022/05/09 02:33:05;;;;;;;6.70;4.93;;;12.30;99.90;;;;;;5052785;28;20819;-68
2022/05/09 02:35:31;;;;;;;5.30;4.90;;;12.30;99.90;;;;;;5050566;28;20466;-68
2022/05/09 02:37:57;;;;;;;6.27;5.33;;;12.30;99.90;;;;;;5051852;28;20428;-69
2022/05/09 02:40:24;;;;;;;5.43;4.93;;;12.30;99.90;;;;;;5051492;28;20406;-68
2022/05/09 02:42:50;;;;;;;7.30;4.83;;;12.20;99.90;;;;;;5051953;28;20174;-68
2022/05/09 02:45:16;;;;;;;8.60;4.90;;;12.20;99.90;;;;;;5051632;28;20532;-68
2022/05/09 02:47:42;;;;;;;7.03;6.32;;;12.10;99.90;;;;;;5052230;28;20422;-68
2022/05/09 02:50:09;;;;;;;5.80;5.30;;;11.90;99.90;;;;;;5051799;28;20166;-68
2022/05/09 02:52:37;;;;;;;6.50;5.53;;;11.80;99.90;;;;;;5051818;28;20166;-68
2022/05/09 02:55:04;;;;;;;7.18;5.80;;;11.60;99.90;;;;;;5050425;28;20490;-68
2022/05/09 02:57:30;;;;;;;6.00;5.40;;;11.50;99.90;;;;;;5052973;28;20186;-69
2022/05/09 02:59:56;;;;;;;11.07;6.13;;;11.30;99.90;;;;;;5050165;28;20499;-69
2022/05/09 03:02:21;;;;;;;7.20;5.70;;;11.10;99.90;;;;;;5051425;28;20686;-68
2022/05/09 03:04:48;;;;;;;6.10;5.50;;;11.10;99.90;;;;;;5051915;28;20201;-68
2022/05/09 03:07:16;;;;;;;6.37;5.70;;;11.10;99.90;;;;;;5052365;28;20173;-68
2022/05/09 03:09:44;;;;;;;7.43;6.00;;;11.00;99.90;;;;;;5052452;28;20827;-69
2022/05/09 03:12:11;;;;;;;7.13;6.40;;;11.00;99.90;;;;;;5051292;28;20408;-69
2022/05/09 03:14:37;;;;;;;11.50;6.47;;;10.90;99.90;;;;;;5051934;28;20520;-70
2022/05/09 03:17:04;;;;;;;7.47;6.13;;;11.00;99.90;;;;;;5050763;28;20413;-70
2022/05/09 03:19:30;;;;;;;5.90;4.60;;;11.00;99.90;;;;;;5051980;28;20421;-68
2022/05/09 03:21:55;;;;;;;6.90;6.20;;;11.10;99.90;;;;;;5051552;28;20458;-69
2022/05/09 03:24:21;;;;;;;5.50;5.00;;;11.20;99.90;;;;;;5051280;28;20186;-69
2022/05/09 03:26:48;;;;;;;7.70;6.70;;;11.30;99.90;;;;;;5051200;28;20171;-69
2022/05/09 03:29:15;;;;;;;6.33;5.57;;;11.40;99.90;;;;;;5050687;28;20181;-69
2022/05/09 03:31:40;;;;;;;5.40;5.00;;;11.40;99.90;;;;;;5051518;28;20462;-69
2022/05/09 03:34:06;;;;;;;10.13;5.70;;;11.40;99.90;;;;;;5015337;28;1033232;-70
2022/05/09 03:36:33;;;;;;;10.60;5.17;;;11.40;99.90;;;;;;5052265;28;20175;-69
2022/05/09 03:38:58;;;;;;;8.10;5.47;;;11.40;99.90;;;;;;5075050;23;20495;-69
2022/05/09 03:41:24;;;;;;;5.23;4.80;;;11.40;99.90;;;;;;5057044;28;20460;-70
2022/05/09 03:43:49;;;;;;;6.53;4.80;;;11.40;99.90;;;;;;5052189;28;20547;-70
2022/05/09 03:46:15;;;;;;;9.40;4.90;;;11.40;99.90;;;;;;5051673;28;20181;-70
2022/05/09 03:48:41;;;;;;;7.60;4.47;;;11.50;99.90;;;;;;5051645;28;20682;-71
2022/05/09 03:51:07;;;;;;;5.90;4.53;;;11.50;99.90;;;;;;5052625;28;20432;-70
2022/05/09 03:53:32;;;;;;;5.50;4.73;;;11.50;99.90;;;;;;5051459;28;20575;-70
2022/05/09 03:55:59;;;;;;;6.27;4.83;;;11.50;99.90;;;;;;5050598;28;20177;-70
2022/05/09 03:58:24;;;;;;;5.57;4.70;;;11.60;99.90;;;;;;5051247;28;20198;-70
2022/05/09 04:00:50;;;;;;;6.73;4.60;;;11.60;99.90;;;;;;5053644;28;20475;-70
2022/05/09 04:03:16;;;;;;;5.10;4.40;;;11.70;99.90;;;;;;5063941;28;20209;-71
2022/05/09 04:05:41;;;;;;;5.97;4.50;;;11.70;99.90;;;;;;5060261;28;20810;-71
2022/05/09 04:08:16;;;;;;;5.87;5.23;;;11.70;99.90;;;;;;5056994;28;20204;-70
2022/05/09 04:10:42;;;;;;;11.10;4.73;;;11.70;99.90;;;;;;5055543;28;20216;-70
2022/05/09 04:13:09;;;;;;;5.50;4.90;;;11.70;99.90;;;;;;5063737;28;20461;-71
2022/05/09 04:18:21;;;;;;;10.37;5.70;;;11.70;99.90;;;;;;5070629;28;20494;-70
2022/05/09 04:20:49;;;;;;;5.60;5.10;;;11.70;99.90;;;;;;5069386;28;20471;-69
2022/05/09 04:23:15;;;;;;;6.43;4.97;;;11.70;99.90;;;;;;5059426;28;20448;-71
2022/05/09 04:25:42;;;;;;;9.10;5.57;;;11.70;99.90;;;;;;5050826;28;20407;-70
2022/05/09 04:28:08;;;;;;;9.97;6.30;;;11.50;99.90;;;;;;5051167;28;20436;-70
2022/05/09 04:30:36;;;;;;;8.20;5.43;;;11.60;99.90;;;;;;5054340;28;20399;-70
2022/05/09 04:33:04;;;;;;;6.37;4.87;;;11.60;99.90;;;;;;5055808;28;20428;-70
2022/05/09 04:35:31;;;;;;;5.47;4.87;;;11.70;99.90;;;;;;5055219;28;20401;-71
2022/05/09 04:37:56;;;;;;;8.00;5.90;;;11.80;99.90;;;;;;5059964;28;20583;-71
2022/05/09 04:40:31;;;;;;;10.70;5.80;;;11.90;99.90;;;;;;5048365;28;20942;-72
2022/05/09 04:42:59;;;;;;;7.67;5.30;;;12.00;99.90;;;;;;5063039;28;20231;-70
2022/05/09 04:45:27;;;;;;;9.60;6.27;;;12.10;99.90;;;;;;5053849;28;20440;-70
2022/05/09 04:47:52;;;;;;;9.50;5.23;;;12.10;99.90;;;;;;5064890;28;20474;-69
2022/05/09 04:50:21;;;;;;;7.00;5.73;;;12.20;99.90;;;;;;5055768;28;20531;-70
2022/05/09 04:52:47;;;;;;;5.80;5.20;;;12.30;99.90;;;;;;5065917;28;20216;-70
2022/05/09 04:55:15;;;;;;;7.97;5.50;;;12.30;99.90;;;;;;5067336;28;20516;-70
2022/05/09 04:57:41;;;;;;;5.80;5.27;;;12.40;99.90;;;;;;5056967;28;20995;-69
2022/05/09 05:00:12;;;;;;;6.67;5.50;;;12.40;99.90;;;;;;5073198;28;20423;-69
2022/05/09 05:02:37;;;;;;;5.67;5.13;;;12.50;99.90;;;;;;5073317;28;20525;-69
2022/05/09 05:05:04;;;;;;;6.90;5.80;;;12.50;99.90;;;;;;5061690;28;20448;-70
2022/05/09 05:07:30;;;;;;;7.90;5.20;;;12.50;99.90;;;;;;5052969;28;20209;-70
2022/05/09 05:09:56;;;;;;;7.27;6.50;;;12.50;99.90;;;;;;5052745;28;20924;-70
2022/05/09 05:12:21;;;;;;;6.00;5.50;;;12.60;99.90;;;;;;5052796;28;20232;-69
2022/05/09 05:14:47;;;;;;;6.17;5.57;;;12.60;99.90;;;;;;5055413;28;20235;-70
2022/05/09 05:17:12;;;;;;;7.23;6.07;;;12.60;99.90;;;;;;5072681;28;20224;-70
2022/05/09 05:19:42;;;;;;;7.00;5.60;;;12.70;99.90;;;;;;5073077;28;20201;-70
2022/05/09 05:22:09;;;;;;;7.23;5.70;;;12.70;99.90;;;;;;5071341;28;20301;-70
2022/05/09 05:24:36;;;;;;;6.77;6.00;;;12.80;99.90;;;;;;5073232;28;20526;-70
2022/05/09 05:27:02;;;;;;;7.93;6.60;;;12.90;99.90;;;;;;5068827;28;20540;-71
2022/05/09 05:29:28;;;;;;;8.60;7.37;;;12.90;99.90;;;;;;5053354;28;20432;-69
2022/05/09 05:31:53;;;;;;;7.63;6.17;;;12.90;99.90;;;;;;5053168;28;20959;-71
2022/05/09 05:34:19;;;;;;;8.57;6.80;;;13.00;99.90;;;;;;5053095;28;20457;-71
2022/05/09 05:36:45;;;;;;;8.40;6.07;;;13.00;99.90;;;;;;5054216;28;20278;-71
2022/05/09 05:39:15;;;;;;;8.00;6.90;;;13.10;99.90;;;;;;5051995;28;20217;-70
2022/05/09 05:41:44;;;;;;;7.20;6.50;;;13.10;99.90;;;;;;5051651;28;20509;-70
2022/05/09 05:44:13;;;;;;;6.63;6.00;;;13.20;99.90;;;;;;5052488;28;20537;-70
2022/05/09 05:46:42;;;;;;;10.07;7.30;;;13.20;99.90;;;;;;5054360;28;20450;-70
2022/05/09 05:49:09;;;;;;;10.43;7.93;;;13.20;99.90;;;;;;5052270;28;20436;-71
2022/05/09 05:51:36;;;;;;;7.47;6.60;;;13.30;99.90;;;;;;5053111;28;20898;-70
2022/05/09 05:54:03;;;;;;;8.10;6.77;;;13.30;99.90;;;;;;5054093;28;20610;-71
2022/05/09 05:56:28;;;;;;;7.80;6.70;;;13.40;99.90;;;;;;5064177;28;20968;-71
2022/05/09 05:58:54;;;;;;;7.40;6.53;;;13.40;99.90;;;;;;5073684;28;20525;-72
2022/05/09 06:01:20;;;;;;;10.17;8.00;;;13.40;99.90;;;;;;5072081;28;20783;-71
2022/05/09 06:03:45;;;;;;;8.83;6.67;;;13.50;99.90;;;;;;5066221;28;20939;-71
2022/05/09 06:06:13;;;;;;;10.77;8.40;;;13.50;99.90;;;;;;5054350;28;20416;-71
2022/05/09 06:08:40;;;;;;;11.90;7.00;;;13.60;99.90;;;;;;5054352;28;20683;-71
2022/05/09 06:11:06;;;;;;;8.90;7.10;;;13.50;99.90;;;;;;5053857;28;20416;-71
2022/05/09 06:13:32;;;;;;;8.67;7.53;;;13.60;99.90;;;;;;5055895;28;20409;-73
2022/05/09 06:15:57;;;;;;;8.70;7.70;;;13.60;99.90;;;;;;5054385;28;20431;-71
2022/05/09 06:18:23;;;;;;;9.67;7.47;;;13.60;99.90;;;;;;5054323;28;20193;-72
2022/05/09 06:20:48;;;;;;;12.10;6.80;;;13.70;99.90;;;;;;5053886;28;20659;-72
2022/05/09 06:23:17;;;;;;;11.50;7.47;;;13.70;99.90;;;;;;5052789;28;20166;-71
2022/05/09 06:25:44;;;;;;;10.07;7.13;;;13.80;99.90;;;;;;5054714;28;20568;-71
2022/05/09 06:28:10;;;;;;;12.63;7.37;;;13.90;99.90;;;;;;5054304;28;20785;-72
2022/05/09 06:30:36;;;;;;;10.20;7.27;;;13.90;99.90;;;;;;5052477;28;20428;-70
2022/05/09 06:33:06;;;;;;;9.40;7.73;;;14.00;99.90;;;;;;5053140;28;20241;-71
2022/05/09 06:35:31;;;;;;;11.23;7.40;;;14.00;99.90;;;;;;5054304;28;20178;-71
2022/05/09 06:38:05;;;;;;;11.63;6.80;;;14.10;99.90;;;;;;5070463;28;20474;-71
2022/05/09 06:40:32;;;;;;;8.47;6.50;;;14.10;99.90;;;;;;5072641;28;20193;-70
2022/05/09 06:42:58;;;;;;;9.30;6.73;;;14.20;99.90;;;;;;5072641;28;20924;-71
2022/05/09 06:45:25;;;;;;;10.27;6.50;;;14.30;99.90;;;;;;5072819;28;20408;-72
2022/05/09 06:47:53;;;;;;;11.17;7.17;;;14.40;99.90;;;;;;5071222;28;20554;-71
2022/05/09 06:50:21;;;;;;;7.30;6.60;;;14.40;99.80;;;;;;5072263;28;20419;-71
2022/05/09 06:52:47;;;;;;;9.33;7.63;;;14.50;99.60;;;;;;5072962;28;20468;-71
2022/05/09 06:55:13;;;;;;;12.93;7.50;;;14.60;99.50;;;;;;5072647;28;20404;-71
2022/05/09 06:57:44;;;;;;;9.40;6.20;;;14.70;99.40;;;;;;5071166;28;20496;-71
2022/05/09 07:00:14;;;;;;;10.13;7.50;;;14.70;99.30;;;;;;5072632;28;20755;-72
2022/05/09 07:02:39;;;;;;;8.10;7.13;;;14.80;99.20;;;;;;5072537;28;20552;-71
2022/05/09 07:05:07;;;;;;;8.60;7.00;;;14.90;99.20;;;;;;5072622;28;20408;-73
2022/05/09 07:07:33;;;;;;;8.73;7.23;;;15.00;99.00;;;;;;5071991;28;20664;-70
2022/05/09 07:09:58;;;;;;;8.10;6.90;;;15.10;99.10;;;;;;5067083;28;20416;-71
2022/05/09 07:12:24;;;;;;;17.97;8.20;;;15.10;99.20;;;;;;5059038;28;20646;-70
2022/05/09 07:14:50;;;;;;;8.03;6.77;;;15.10;99.20;;;;;;5072737;28;20178;-71
2022/05/09 07:17:15;;;;;;;9.27;7.33;;;15.30;99.10;;;;;;5072546;28;20170;-71
2022/05/09 07:19:41;;;;;;;9.70;6.10;;;15.40;98.90;;;;;;5062446;28;20205;-71
2022/05/09 07:22:06;;;;;;;7.03;6.33;;;15.50;98.80;;;;;;5052393;28;20248;-71
2022/05/09 07:24:32;;;;;;;10.70;6.60;;;15.60;98.90;;;;;;5052130;28;20170;-71
2022/05/09 07:26:57;;;;;;;7.93;6.80;;;15.70;99.00;;;;;;5052697;28;20191;-71
2022/05/09 07:29:23;;;;;;;8.47;6.50;;;15.80;99.10;;;;;;5052858;28;20198;-72
2022/05/09 07:31:49;;;;;;;7.80;6.37;;;15.90;98.90;;;;;;5052640;28;20182;-72
2022/05/09 07:34:14;;;;;;;9.63;6.17;;;16.00;98.80;;;;;;5052329;28;20311;-72
2022/05/09 07:36:40;;;;;;;6.73;5.97;;;16.10;98.80;;;;;;5052327;28;20178;-72
2022/05/09 07:39:05;;;;;;;8.10;7.10;;;16.20;98.60;;;;;;5052577;28;20725;-72
2022/05/09 07:41:32;;;;;;;7.53;6.83;;;16.40;98.90;;;;;;5051926;28;20197;-72
2022/05/09 07:43:57;;;;;;;7.70;6.90;;;16.50;99.40;;;;;;5052099;28;20178;-73
2022/05/09 07:46:23;;;;;;;8.40;7.00;;;16.50;99.60;;;;;;5052095;28;20423;-72
2022/05/09 07:48:49;;;;;;;8.80;6.03;;;16.60;99.70;;;;;;5053646;28;20621;-71
2022/05/09 07:51:15;;;;;;;8.47;6.33;;;16.70;99.60;;;;;;5052234;28;20825;-72
2022/05/09 07:53:41;;;;;;;8.07;6.33;;;16.90;99.70;;;;;;5052469;28;20443;-72
2022/05/09 07:56:07;;;;;;;8.13;7.33;;;17.00;99.70;;;;;;5052152;28;20404;-71
2022/05/09 07:58:33;;;;;;;6.97;5.70;;;17.10;99.90;;;;;;5053556;28;20564;-71
2022/05/09 08:01:01;;;;;;;6.13;5.57;;;17.30;99.90;;;;;;5055281;28;20464;-72
2022/05/09 08:03:29;;;;;;;6.83;6.13;;;17.40;99.90;;;;;;5053722;28;20409;-71
2022/05/09 08:05:56;;;;;;;8.07;6.10;;;17.50;99.90;;;;;;5056246;28;20718;-72
2022/05/09 08:08:22;;;;;;;6.53;5.90;;;17.70;99.90;;;;;;5055825;28;20427;-71
2022/05/09 08:10:48;;;;;;;8.70;6.00;;;17.90;99.90;;;;;;5057053;28;20991;-71
2022/05/09 08:13:16;;;;;;;6.97;6.27;;;18.00;99.90;;;;;;5054545;28;20504;-72
2022/05/09 08:15:44;;;;;;;5.80;5.40;;;18.10;99.90;;;;;;5056445;28;20408;-71
2022/05/09 08:18:10;;;;;;;7.53;5.63;;;18.30;99.80;;;;;;5055661;28;20888;-72
2022/05/09 08:20:37;;;;;;;8.00;6.33;;;18.40;99.60;;;;;;5056098;28;20416;-71
2022/05/09 08:23:06;;;;;;;6.40;5.80;;;18.50;99.40;;;;;;5055246;28;20408;-72
2022/05/09 08:25:34;;;;;;;7.20;6.60;;;18.60;99.20;;;;;;5054732;28;20401;-72
2022/05/09 08:28:02;;;;;;;7.33;6.67;;;18.70;98.90;;;;;;5055338;28;20850;-72
2022/05/09 08:30:32;;;;;;;6.90;6.30;;;18.80;98.80;;;;;;5054988;28;20491;-72
2022/05/09 08:32:59;;;;;;;6.33;5.47;;;19.00;98.70;;;;;;5056685;28;20554;-72
2022/05/09 08:35:25;;;;;;;7.10;6.40;;;19.10;98.90;;;;;;5054961;28;20435;-71
2022/05/09 08:37:50;;;;;;;6.30;5.70;;;19.20;98.50;;;;;;5070788;28;20205;-71
2022/05/09 08:40:20;;;;;;;6.30;5.50;;;19.30;98.30;;;;;;5073440;28;20680;-72
2022/05/09 08:42:56;;;;;;;7.43;6.70;;;19.40;98.00;;;;;;5074399;28;20422;-72
2022/05/09 08:45:31;;;;;;;7.23;6.37;;;19.50;97.80;;;;;;5075422;28;20231;-72
2022/05/09 08:48:24;;;;;;;6.40;5.90;;;19.60;97.70;;;;;;5073363;28;20974;-70
2022/05/09 08:51:27;;;;;;;7.03;6.33;;;19.70;97.40;;;;;;5074836;28;20415;-71
2022/05/09 08:53:59;;;;;;;7.33;6.60;;;19.80;97.30;;;;;;5075150;28;20729;-71
2022/05/09 08:56:24;;;;;;;6.67;6.07;;;19.80;97.30;;;;;;5076040;28;20457;-71
2022/05/09 08:59:03;;;;;;;6.60;5.90;;;19.80;97.20;;;;;;5073250;28;20651;-72
2022/05/09 09:01:41;;;;;;;7.43;6.73;;;19.90;97.10;;;;;;5075230;28;20211;-72
2022/05/09 09:04:23;;;;;;;6.63;6.03;;;20.00;96.90;;;;;;5075430;28;20829;-71
2022/05/09 09:07:12;;;;;;;7.17;6.57;;;20.10;96.80;;;;;;5074720;28;20461;-70
2022/05/09 09:10:08;;;;;;;6.33;5.83;;;20.30;96.50;;;;;;5072609;28;20439;-70
2022/05/09 09:13:14;;;;;;;6.80;6.10;;;20.20;96.40;;;;;;5073516;28;20510;-72
2022/05/09 09:16:15;;;;;;;7.10;5.90;;;20.30;96.40;;;;;;5073636;28;20422;-72
2022/05/09 09:19:04;;;;;;;6.17;5.63;;;20.40;96.30;;;;;;5073295;28;20440;-71
2022/05/09 09:21:33;;;;;;;7.40;6.70;;;20.40;96.10;;;;;;5077944;28;20434;-72
2022/05/09 09:24:04;;;;;;;8.00;6.40;;;20.50;96.10;;;;;;5077646;28;20649;-71
2022/05/09 09:26:39;;;;;;;8.80;6.33;;;20.60;96.20;;;;;;5075705;28;20410;-72
2022/05/09 09:29:18;;;;;;;6.70;6.10;;;20.70;95.90;;;;;;5072190;28;20431;-72
2022/05/09 09:31:48;;;;;;;6.87;5.83;;;20.80;95.40;;;;;;5075298;28;20879;-73
2022/05/09 09:34:26;;;;;;;6.93;6.37;;;20.90;95.30;;;;;;5074944;28;20515;-73
2022/05/09 09:37:00;;;;;;;6.67;6.00;;;20.80;95.20;;;;;;5075534;28;20502;-71
2022/05/09 09:39:26;;;;;;;6.17;5.53;;;20.80;95.10;;;;;;5072657;28;20448;-72
2022/05/09 09:41:52;;;;;;;8.10;7.37;;;20.90;95.20;;;;;;5072609;28;20456;-71
2022/05/09 09:44:23;;;;;;;10.13;6.40;;;21.00;94.80;;;;;;5074631;28;20445;-71
2022/05/09 09:47:09;;;;;;;7.53;6.83;;;21.00;94.70;;;;;;5074127;28;20173;-71
2022/05/09 09:49:40;;;;;;;7.50;6.77;;;21.00;94.90;;;;;;5073669;28;20420;-72
2022/05/09 09:52:21;;;;;;;6.17;5.67;;;21.10;94.80;;;;;;5070917;28;20820;-72
2022/05/09 09:54:57;;;;;;;5.50;5.00;;;21.30;94.00;;;;;;5073888;28;20490;-72
2022/05/09 09:57:29;;;;;;;5.90;5.40;;;21.20;93.70;;;;;;5073913;28;20507;-72
2022/05/09 09:59:55;;;;;;;6.33;5.70;;;21.20;93.90;;;;;;5073377;28;20424;-72
2022/05/09 10:02:27;;;;;;;6.30;5.77;;;21.20;94.00;;;;;;5071647;28;20577;-72
2022/05/09 10:04:57;;;;;;;7.10;6.33;;;21.40;94.00;;;;;;5074543;28;20404;-72
2022/05/09 10:07:30;;;;;;;9.40;6.63;;;21.60;93.70;;;;;;5073575;28;20416;-72
2022/05/09 10:10:13;;;;;;;6.37;5.77;;;21.60;93.00;;;;;;5074042;28;20396;-71
2022/05/09 10:12:48;;;;;;;7.50;6.07;;;21.70;93.20;;;;;;5072081;28;20426;-72
2022/05/09 10:15:35;;;;;;;6.53;6.03;;;21.70;93.10;;;;;;5073727;28;20411;-71
2022/05/09 10:18:18;;;;;;;6.60;6.00;;;21.70;93.00;;;;;;5073360;28;20424;-72
2022/05/09 10:20:44;;;;;;;6.03;5.60;;;21.90;92.60;;;;;;5073181;28;20831;-72
2022/05/09 10:26:21;;;;;;;6.60;5.67;;;22.10;92.30;;;;;;5073228;28;20403;-72
2022/05/09 10:28:53;;;;;;;6.63;6.03;;;22.30;92.10;;;;;;5073204;28;20447;-72
2022/05/09 10:31:33;;;;;;;6.07;5.50;;;22.40;91.80;;;;;;5073933;28;20408;-72
2022/05/09 10:34:03;;;;;;;6.00;5.50;;;22.50;91.10;;;;;;5071414;28;20497;-72
2022/05/09 10:36:42;;;;;;;5.77;5.20;;;22.60;90.80;;;;;;5067296;28;20788;-72
2022/05/09 10:39:10;;;;;;;5.60;5.10;;;22.50;90.60;;;;;;5052916;28;20860;-71
2022/05/09 10:41:46;;;;;;;7.47;5.47;;;22.50;90.50;;;;;;5052945;28;20498;-71
2022/05/09 10:44:39;;;;;;;5.73;5.23;;;22.50;90.80;;;;;;5052183;28;20417;-72
2022/05/09 10:47:10;;;;;;;6.55;5.85;;;22.40;91.20;;;;;;5015262;28;20471;-71
2022/05/09 10:49:58;;;;;;;6.73;6.07;;;22.30;91.50;;;;;;5030305;28;20225;-72
2022/05/09 10:52:50;;;;;;;6.47;5.87;;;22.10;91.50;;;;;;5030959;28;20977;-73
2022/05/09 10:55:28;;;;;;;5.90;5.50;;;22.00;91.40;;;;;;5031241;28;20834;-72
2022/05/09 10:58:06;;;;;;;6.53;5.93;;;22.10;91.30;;;;;;5029153;28;20449;-72
2022/05/09 11:00:37;;;;;;;5.77;5.20;;;22.20;91.20;;;;;;5030245;28;20501;-73
2022/05/09 11:03:07;;;;;;;6.20;5.60;;;22.40;90.60;;;;;;5030525;28;20953;-73
2022/05/09 11:05:46;;;;;;;5.97;5.47;;;22.70;90.40;;;;;;5030503;28;20981;-70
2022/05/09 11:08:27;;;;;;;5.50;5.10;;;22.70;90.30;;;;;;5028963;28;20561;-71
2022/05/09 11:11:24;;;;;;;6.77;6.07;;;22.90;90.10;;;;;;5030286;28;20397;-72
2022/05/09 11:14:10;;;;;;;6.50;5.87;;;22.90;89.20;;;;;;5030170;28;20940;-71
2022/05/09 11:16:57;;;;;;;6.20;5.60;;;22.90;88.90;;;;;;5030483;28;20420;-71
2022/05/09 11:19:52;;;;;;;5.77;5.27;;;22.90;88.90;;;;;;5027978;28;20479;-72
2022/05/09 11:22:35;;;;;;;6.47;5.87;;;22.90;89.00;;;;;;5030078;28;20472;-72
2022/05/09 11:25:16;;;;;;;5.50;5.00;;;22.90;88.40;;;;;;5070001;28;20494;-72
2022/05/09 11:28:08;;;;;;;5.73;5.07;;;22.80;87.90;;;;;;5071700;28;20669;-72
2022/05/09 11:30:45;;;;;;;8.13;5.80;;;22.70;87.90;;;;;;5070738;28;20418;-73
2022/05/09 11:33:42;;;;;;;5.63;5.03;;;22.50;87.30;;;;;;5072941;28;20252;-71
2022/05/09 11:36:25;;;;;;;4.77;4.47;;;22.50;87.50;;;;;;5072854;28;20396;-72
2022/05/09 11:39:06;;;;;;;5.00;4.60;;;22.60;86.20;;;;;;5071481;28;20543;-71
2022/05/09 11:41:54;;;;;;;6.00;4.83;;;22.60;85.30;;;;;;5071064;28;20451;-71
2022/05/09 11:44:24;;;;;;;6.03;5.37;;;22.70;87.00;;;;;;5074965;28;20839;-71
2022/05/09 11:47:22;;;;;;;6.40;5.10;;;22.70;87.60;;;;;;5074614;28;20415;-71
2022/05/09 11:49:58;;;;;;;5.40;4.90;;;22.60;88.00;;;;;;5077070;28;20818;-71
2022/05/09 11:52:37;;;;;;;6.43;5.10;;;22.50;87.80;;;;;;5087766;28;20423;-71
2022/05/09 11:55:22;;;;;;;5.40;5.00;;;22.60;88.10;;;;;;5090766;28;20415;-72
2022/05/09 11:57:59;;;;;;;4.87;4.40;;;22.70;87.40;;;;;;5092072;28;20396;-71
2022/05/09 12:00:30;;;;;;;4.93;4.63;;;22.80;87.10;;;;;;5087714;28;20757;-71
2022/05/09 12:02:58;;;;;;;5.43;4.93;;;22.80;86.90;;;;;;5090421;28;20426;-71
2022/05/09 12:05:27;;;;;;;4.73;4.43;;;23.00;86.40;;;;;;5090195;28;20241;-71
2022/05/09 12:08:02;;;;;;;5.20;4.73;;;23.00;85.70;;;;;;5082549;28;20522;-72
2022/05/09 12:10:28;;;;;;;5.30;4.30;;;23.00;85.80;;;;;;5070468;28;20419;-71
2022/05/09 12:13:04;;;;;;;5.73;4.70;;;23.10;83.80;;;;;;5072280;28;20836;-70
2022/05/09 12:15:29;;;;;;;4.77;4.33;;;23.00;83.40;;;;;;5073613;28;20465;-71
2022/05/09 12:17:57;;;;;;;4.93;4.47;;;23.00;83.20;;;;;;5073024;28;21061;-72
2022/05/09 12:20:27;;;;;;;5.47;4.60;;;23.10;83.80;;;;;;5071589;28;20208;-72
2022/05/09 12:22:54;;;;;;;5.40;4.40;;;23.10;83.60;;;;;;5071771;28;20494;-72
2022/05/09 12:25:44;;;;;;;5.10;4.70;;;23.10;83.70;;;;;;5069844;28;20784;-72
2022/05/09 12:28:22;;;;;;;4.87;4.53;;;23.10;83.50;;;;;;5073461;28;20427;-72
2022/05/09 12:31:32;;;;;;;4.90;4.50;;;23.10;83.30;;;;;;5071545;28;20404;-71
2022/05/09 12:33:58;;;;;;;5.57;4.83;;;23.10;83.60;;;;;;5028865;28;20421;-71
2022/05/09 12:36:32;;;;;;;4.77;4.37;;;23.10;83.70;;;;;;5006938;28;20938;-71
2022/05/09 12:39:17;;;;;;;6.05;4.70;;;23.10;84.10;;;;;;5009289;28;20422;-72
2022/05/09 12:42:03;;;;;;;5.03;4.57;;;23.20;84.00;;;;;;5010066;28;20286;-72
2022/05/09 12:44:34;;;;;;;4.90;4.50;;;23.10;82.90;;;;;;4992799;28;20536;-72
2022/05/09 12:47:04;;;;;;;5.07;4.67;;;23.10;83.10;;;;;;5009268;28;20647;-72
2022/05/09 12:49:45;;;;;;;5.13;4.70;;;23.00;82.00;;;;;;5009146;28;20879;-71
2022/05/09 12:52:17;;;;;;;5.43;4.93;;;22.90;81.90;;;;;;5013727;28;20568;-72
2022/05/09 12:55:52;;;;;;;4.50;4.20;;;22.90;81.50;;;;;;5012491;28;20973;-72
2022/05/09 12:57:35;;;;;;;5.63;4.47;;;22.90;81.50;;;;;;5012271;28;20899;-70
2022/05/09 13:00:11;;;;;;;4.30;4.03;;;22.90;80.70;;;;;;5013182;28;20509;-73
2022/05/09 13:02:37;;;;;;;4.70;4.30;;;23.00;80.40;;;;;;5012341;28;20464;-74
2022/05/09 13:05:05;;;;;;;3.90;3.60;;;23.00;78.90;;;;;;5012708;28;20411;-71
2022/05/09 13:07:31;;;;;;;4.23;3.93;;;23.10;78.80;;;;;;5012590;28;20179;-71
2022/05/09 13:09:58;;;;;;;5.43;4.47;;;23.00;78.40;;;;;;5020094;28;20408;-72
2022/05/09 13:12:25;;;;;;;5.60;4.50;;;23.10;78.60;;;;;;5055754;28;20496;-72
2022/05/09 13:14:59;;;;;;;5.40;4.90;;;23.10;78.00;;;;;;5053156;28;20447;-72